createdAt,value
2022-10-30T00:01:58.409Z,20.20
2022-10-30T00:04:25.324Z,20.20
2022-10-30T00:06:52.016Z,20.20
2022-10-30T00:09:18.729Z,20.20
2022-10-30T00:11:45.495Z,20.20
2022-10-30T00:14:13.941Z,20.20
2022-10-30T00:16:40.629Z,20.20
2022-10-30T00:19:07.372Z,20.20
2022-10-30T00:21:34.079Z,20.10
2022-10-30T00:24:00.742Z,20.20
2022-10-30T00:26:28.249Z,20.10
2022-10-30T00:28:55.674Z,20.10
2022-10-30T00:31:22.854Z,20.10
2022-10-30T00:33:53.306Z,20.10
2022-10-30T00:36:20.758Z,20.10
2022-10-30T00:38:47.599Z,20.10
2022-10-30T00:41:15.678Z,20.10
2022-10-30T00:43:42.703Z,20.10
2022-10-30T00:46:18.282Z,20.10
2022-10-30T00:48:48.380Z,20.10
2022-10-30T00:51:15.116Z,20.10
2022-10-30T00:53:42.756Z,20.10
2022-10-30T00:56:11.435Z,20.10
2022-10-30T00:58:46.941Z,20.10
2022-10-30T01:01:16.856Z,20.10
2022-10-30T01:03:43.822Z,20.10
2022-10-30T01:06:11.928Z,20.10
2022-10-30T01:08:38.754Z,20.10
2022-10-30T01:11:05.958Z,20.10
2022-10-30T01:13:34.719Z,20.10
2022-10-30T01:16:24.444Z,20.10
2022-10-30T01:19:00.518Z,20.10
2022-10-30T01:21:33.291Z,20.10
2022-10-30T01:24:26.289Z,20.10
2022-10-30T01:27:03.355Z,20.10
2022-10-30T01:29:30.165Z,20.10
2022-10-30T01:32:02.730Z,20.10
2022-10-30T01:34:29.456Z,20.10
2022-10-30T01:37:03.977Z,20.10
2022-10-30T01:39:35.613Z,20.10
2022-10-30T01:42:09.569Z,20.10
2022-10-30T01:44:36.383Z,20.10
2022-10-30T01:47:03.065Z,20.10
2022-10-30T01:49:48.872Z,20.10
2022-10-30T01:52:21.962Z,20.10
2022-10-30T01:55:09.537Z,20.10
2022-10-30T01:57:41.151Z,20.10
2022-10-30T02:00:09.728Z,20.10
2022-10-30T02:02:36.908Z,20.10
2022-10-30T02:05:04.879Z,20.10
2022-10-30T02:07:31.653Z,20.10
2022-10-30T02:09:58.420Z,20.00
2022-10-30T02:12:26.497Z,20.10
2022-10-30T02:14:56.410Z,20.10
2022-10-30T02:17:23.273Z,20.10
2022-10-30T02:19:50.061Z,20.10
2022-10-30T02:22:18.185Z,20.10
2022-10-30T02:24:45.191Z,20.10
2022-10-30T02:27:12.068Z,20.10
2022-10-30T02:29:38.870Z,20.10
2022-10-30T02:32:05.557Z,20.10
2022-10-30T02:34:32.296Z,20.10
2022-10-30T02:36:59.028Z,20.10
2022-10-30T02:39:25.773Z,20.10
2022-10-30T02:41:52.461Z,20.10
2022-10-30T02:44:19.300Z,20.10
2022-10-30T02:46:46.023Z,20.10
2022-10-30T02:49:12.747Z,20.10
2022-10-30T02:51:39.580Z,20.10
2022-10-30T02:54:06.275Z,20.10
2022-10-30T02:56:32.983Z,20.00
2022-10-30T02:58:59.764Z,20.00
2022-10-30T03:01:26.573Z,20.10
2022-10-30T03:03:53.362Z,20.10
2022-10-30T03:06:20.147Z,20.10
2022-10-30T03:08:46.881Z,20.20
2022-10-30T03:11:17.013Z,20.10
2022-10-30T03:13:44.688Z,20.00
2022-10-30T03:16:12.911Z,20.10
2022-10-30T03:18:39.915Z,20.10
2022-10-30T03:21:07.678Z,20.10
2022-10-30T03:23:34.832Z,20.10
2022-10-30T03:26:01.683Z,20.00
2022-10-30T03:28:29.251Z,20.10
2022-10-30T03:31:00.286Z,20.10
2022-10-30T03:33:26.968Z,20.00
2022-10-30T03:35:53.714Z,20.00
2022-10-30T03:38:20.402Z,20.00
2022-10-30T03:40:47.109Z,20.10
2022-10-30T03:43:14.049Z,20.10
2022-10-30T03:45:40.759Z,20.10
2022-10-30T03:48:07.482Z,20.10
2022-10-30T03:50:34.322Z,20.10
2022-10-30T03:53:01.037Z,20.10
2022-10-30T03:55:27.752Z,20.10
2022-10-30T03:57:54.614Z,20.10
2022-10-30T04:00:21.601Z,20.00
2022-10-30T04:02:48.881Z,20.00
2022-10-30T04:05:16.473Z,20.10
2022-10-30T04:07:43.433Z,20.10
2022-10-30T04:10:10.819Z,20.00
2022-10-30T04:12:37.628Z,20.10
2022-10-30T04:15:05.052Z,20.10
2022-10-30T04:17:31.828Z,20.10
2022-10-30T04:19:58.765Z,20.10
2022-10-30T04:22:25.533Z,20.10
2022-10-30T04:24:53.625Z,20.10
2022-10-30T04:27:20.664Z,20.10
2022-10-30T04:29:47.413Z,20.10
2022-10-30T04:32:16.541Z,20.00
2022-10-30T04:34:43.297Z,20.10
2022-10-30T04:37:10.044Z,20.10
2022-10-30T04:39:40.921Z,20.00
2022-10-30T04:42:10.623Z,20.00
2022-10-30T04:44:37.322Z,20.00
2022-10-30T04:47:06.479Z,20.10
2022-10-30T04:49:33.228Z,20.00
2022-10-30T04:52:00.119Z,20.00
2022-10-30T04:54:28.661Z,20.00
2022-10-30T04:56:55.414Z,20.00
2022-10-30T04:59:22.107Z,20.10
2022-10-30T05:01:48.903Z,20.00
2022-10-30T05:04:15.757Z,20.00
2022-10-30T05:06:42.507Z,20.00
2022-10-30T05:09:09.202Z,20.10
2022-10-30T05:11:35.971Z,20.00
2022-10-30T05:14:02.723Z,20.00
2022-10-30T05:16:29.444Z,20.00
2022-10-30T05:18:56.224Z,20.00
2022-10-30T05:21:22.894Z,20.00
2022-10-30T05:23:49.593Z,20.00
2022-10-30T05:26:16.554Z,20.10
2022-10-30T05:28:43.271Z,20.10
2022-10-30T05:31:09.961Z,20.00
2022-10-30T05:33:36.734Z,20.00
2022-10-30T05:36:03.595Z,20.00
2022-10-30T05:38:30.292Z,20.10
2022-10-30T05:40:56.998Z,20.10
2022-10-30T05:43:23.708Z,20.10
2022-10-30T05:45:50.579Z,20.10
2022-10-30T05:48:21.637Z,20.00
2022-10-30T05:50:48.518Z,20.00
2022-10-30T05:53:15.237Z,20.00
2022-10-30T05:55:42.010Z,20.10
2022-10-30T05:58:09.643Z,20.10
2022-10-30T06:00:36.708Z,20.00
2022-10-30T06:03:07.777Z,20.10
2022-10-30T06:05:35.484Z,20.10
2022-10-30T06:08:03.153Z,20.10
2022-10-30T06:10:30.046Z,20.20
2022-10-30T06:12:57.817Z,20.20
2022-10-30T06:15:24.699Z,20.20
2022-10-30T06:17:51.823Z,20.20
2022-10-30T06:20:19.195Z,20.10
2022-10-30T06:22:56.222Z,20.20
2022-10-30T06:25:23.333Z,20.20
2022-10-30T06:27:50.376Z,20.20
2022-10-30T06:30:17.317Z,20.20
2022-10-30T06:32:44.056Z,20.20
2022-10-30T06:35:11.079Z,20.10
2022-10-30T06:37:40.896Z,20.10
2022-10-30T06:40:08.093Z,20.20
2022-10-30T06:42:41.655Z,20.20
2022-10-30T06:45:08.489Z,20.20
2022-10-30T06:47:35.668Z,20.20
2022-10-30T06:50:02.601Z,20.20
2022-10-30T06:52:29.287Z,20.20
2022-10-30T06:54:55.991Z,19.80
2022-10-30T06:57:22.779Z,19.70
2022-10-30T06:59:49.456Z,19.60
2022-10-30T07:02:16.305Z,19.60
2022-10-30T07:04:43.236Z,19.50
2022-10-30T07:07:09.927Z,19.40
2022-10-30T07:09:36.620Z,19.50
2022-10-30T07:12:06.956Z,19.50
2022-10-30T07:14:34.351Z,19.40
2022-10-30T07:17:01.124Z,19.50
2022-10-30T07:19:28.045Z,19.50
2022-10-30T07:21:54.829Z,19.50
2022-10-30T07:24:21.518Z,19.60
2022-10-30T07:26:48.310Z,19.70
2022-10-30T07:29:15.016Z,19.80
2022-10-30T07:31:49.673Z,19.90
2022-10-30T07:34:24.185Z,20.00
2022-10-30T07:36:51.347Z,20.00
2022-10-30T07:39:18.071Z,20.10
2022-10-30T07:41:49.711Z,20.10
2022-10-30T07:44:16.816Z,20.20
2022-10-30T07:46:43.512Z,20.20
2022-10-30T07:49:10.527Z,20.20
2022-10-30T07:51:37.212Z,20.20
2022-10-30T07:54:03.949Z,20.20
2022-10-30T07:56:30.705Z,20.20
2022-10-30T07:58:57.398Z,20.30
2022-10-30T08:01:24.866Z,20.20
2022-10-30T08:03:51.849Z,20.20
2022-10-30T08:06:21.440Z,20.30
2022-10-30T08:08:51.348Z,20.30
2022-10-30T08:11:18.146Z,20.30
2022-10-30T08:13:44.835Z,20.30
2022-10-30T08:16:12.911Z,20.30
2022-10-30T08:18:42.531Z,20.30
2022-10-30T08:21:09.747Z,20.30
2022-10-30T08:23:36.467Z,20.30
2022-10-30T08:26:03.245Z,20.30
2022-10-30T08:28:32.734Z,20.00
2022-10-30T08:31:00.723Z,19.50
2022-10-30T08:33:27.441Z,19.30
2022-10-30T08:35:58.702Z,19.50
2022-10-30T08:38:26.307Z,19.50
2022-10-30T08:40:53.110Z,19.50
2022-10-30T08:43:20.706Z,19.50
2022-10-30T08:45:47.486Z,19.50
2022-10-30T08:48:15.813Z,19.60
2022-10-30T08:50:42.554Z,19.50
2022-10-30T08:53:12.835Z,19.50
2022-10-30T08:55:39.901Z,19.60
2022-10-30T08:58:06.631Z,19.60
2022-10-30T09:00:34.340Z,19.70
2022-10-30T09:03:02.852Z,19.60
2022-10-30T09:05:30.137Z,19.70
2022-10-30T09:07:58.135Z,19.90
2022-10-30T09:10:25.164Z,19.90
2022-10-30T09:12:56.133Z,19.90
2022-10-30T09:15:23.302Z,19.90
2022-10-30T09:17:55.658Z,19.90
2022-10-30T09:20:22.693Z,20.00
2022-10-30T09:22:49.512Z,20.20
2022-10-30T09:25:16.364Z,20.20
2022-10-30T09:27:43.151Z,20.20
2022-10-30T09:30:10.194Z,20.10
2022-10-30T09:32:37.000Z,20.10
2022-10-30T09:35:03.832Z,20.10
2022-10-30T09:37:34.206Z,20.10
2022-10-30T09:40:01.004Z,20.20
2022-10-30T09:42:37.951Z,20.10
2022-10-30T09:48:03.754Z,20.20
2022-10-30T09:50:35.802Z,20.40
2022-10-30T09:53:08.569Z,20.50
2022-10-30T09:55:58.740Z,20.60
2022-10-30T09:58:34.647Z,20.60
2022-10-30T10:01:07.567Z,20.60
2022-10-30T10:03:37.449Z,20.60
2022-10-30T10:06:05.332Z,20.60
2022-10-30T10:08:39.802Z,20.60
2022-10-30T10:11:24.411Z,20.50
2022-10-30T10:13:53.788Z,20.80
2022-10-30T10:16:25.213Z,20.90
2022-10-30T10:19:21.448Z,21.00
2022-10-30T10:22:06.001Z,21.00
2022-10-30T10:24:38.867Z,21.10
2022-10-30T10:27:24.480Z,21.00
2022-10-30T10:29:59.718Z,21.10
2022-10-30T10:32:45.142Z,21.10
2022-10-30T10:35:23.463Z,21.00
2022-10-30T10:37:58.994Z,21.00
2022-10-30T10:40:44.247Z,21.00
2022-10-30T10:43:17.215Z,21.00
2022-10-30T10:45:56.466Z,21.00
2022-10-30T10:48:41.584Z,21.10
2022-10-30T10:51:11.724Z,21.00
2022-10-30T10:53:42.733Z,21.10
2022-10-30T10:56:10.141Z,21.10
2022-10-30T10:58:43.740Z,21.10
2022-10-30T11:01:14.795Z,21.10
2022-10-30T11:03:50.108Z,21.10
2022-10-30T11:06:26.937Z,21.10
2022-10-30T11:09:01.504Z,21.10
2022-10-30T11:11:28.274Z,21.10
2022-10-30T11:13:55.625Z,21.10
2022-10-30T11:16:23.007Z,21.10
2022-10-30T11:18:52.939Z,21.20
2022-10-30T11:21:21.718Z,21.20
2022-10-30T11:23:49.250Z,21.30
2022-10-30T11:26:19.618Z,21.30
2022-10-30T11:28:52.566Z,21.30
2022-10-30T11:31:19.333Z,21.30
2022-10-30T11:33:46.546Z,21.20
2022-10-30T11:36:23.960Z,21.20
2022-10-30T11:38:51.454Z,21.30
2022-10-30T11:41:19.079Z,21.40
2022-10-30T11:43:46.646Z,21.40
2022-10-30T11:46:19.923Z,21.40
2022-10-30T11:48:46.845Z,21.50
2022-10-30T11:51:13.781Z,21.50
2022-10-30T11:53:48.903Z,21.40
2022-10-30T11:56:15.564Z,21.50
2022-10-30T11:58:44.372Z,21.50
2022-10-30T12:01:17.283Z,21.50
2022-10-30T12:03:44.056Z,21.50
2022-10-30T12:06:22.879Z,21.50
2022-10-30T12:09:00.265Z,21.50
2022-10-30T12:11:31.593Z,21.40
2022-10-30T12:13:58.552Z,21.30
2022-10-30T12:16:25.887Z,21.40
2022-10-30T12:18:55.131Z,21.40
2022-10-30T12:21:21.911Z,21.50
2022-10-30T12:23:54.836Z,21.40
2022-10-30T12:26:22.739Z,21.50
2022-10-30T12:28:55.535Z,21.50
2022-10-30T12:31:24.834Z,21.30
2022-10-30T12:33:57.875Z,21.50
2022-10-30T12:36:26.787Z,21.60
2022-10-30T12:38:56.463Z,21.60
2022-10-30T12:41:26.712Z,21.50
2022-10-30T12:44:08.835Z,21.40
2022-10-30T12:46:47.235Z,21.30
2022-10-30T12:49:15.000Z,21.40
2022-10-30T12:52:00.567Z,21.50
2022-10-30T12:54:30.414Z,21.50
2022-10-30T12:57:04.047Z,21.40
2022-10-30T12:59:33.822Z,21.20
2022-10-30T13:02:08.751Z,21.30
2022-10-30T13:04:41.704Z,21.40
2022-10-30T13:07:14.402Z,21.30
2022-10-30T13:09:52.475Z,21.20
2022-10-30T13:12:31.933Z,21.20
2022-10-30T13:15:03.413Z,21.40
2022-10-30T13:17:31.693Z,21.30
2022-10-30T13:20:00.746Z,21.40
2022-10-30T13:22:44.312Z,21.40
2022-10-30T13:25:15.120Z,21.50
2022-10-30T13:27:46.849Z,21.60
2022-10-30T13:30:15.306Z,21.50
2022-10-30T13:32:50.655Z,21.60
2022-10-30T13:35:27.809Z,21.40
2022-10-30T13:38:02.909Z,21.50
2022-10-30T13:40:31.984Z,21.50
2022-10-30T13:43:19.579Z,21.50
2022-10-30T13:45:56.167Z,21.50
2022-10-30T13:48:43.097Z,21.60
2022-10-30T13:51:13.492Z,21.70
2022-10-30T13:53:44.837Z,21.60
2022-10-30T13:56:19.577Z,21.60
2022-10-30T13:58:59.239Z,21.70
2022-10-30T14:01:36.640Z,21.80
2022-10-30T14:04:22.693Z,21.90
2022-10-30T14:07:16.537Z,21.90
2022-10-30T14:09:44.984Z,21.90
2022-10-30T14:12:31.065Z,21.90
2022-10-30T14:15:04.670Z,21.90
2022-10-30T14:17:31.502Z,21.80
2022-10-30T14:20:13.581Z,21.70
2022-10-30T14:22:41.740Z,21.60
2022-10-30T14:25:15.852Z,21.70
2022-10-30T14:27:43.000Z,21.60
2022-10-30T14:30:19.683Z,21.70
2022-10-30T14:32:51.132Z,21.60
2022-10-30T14:35:33.227Z,21.60
2022-10-30T14:38:15.334Z,21.60
2022-10-30T14:40:48.657Z,21.50
2022-10-30T14:43:24.944Z,21.50
2022-10-30T14:46:01.941Z,21.50
2022-10-30T14:48:34.499Z,21.40
2022-10-30T14:51:16.689Z,21.30
2022-10-30T14:53:56.434Z,21.30
2022-10-30T14:56:27.377Z,21.30
2022-10-30T14:59:14.375Z,21.20
2022-10-30T15:01:48.949Z,21.20
2022-10-30T15:04:22.026Z,21.10
2022-10-30T15:07:11.527Z,21.10
2022-10-30T15:09:58.457Z,21.10
2022-10-30T15:12:44.530Z,21.00
2022-10-30T15:15:13.987Z,21.00
2022-10-30T15:17:41.941Z,20.90
2022-10-30T15:20:15.087Z,20.90
2022-10-30T15:22:42.120Z,20.90
2022-10-30T15:25:20.313Z,20.90
2022-10-30T15:27:49.055Z,20.90
2022-10-30T15:30:17.848Z,20.80
2022-10-30T15:32:44.745Z,20.70
2022-10-30T15:35:16.355Z,20.80
2022-10-30T15:37:58.748Z,20.80
2022-10-30T15:40:25.697Z,20.70
2022-10-30T15:42:52.852Z,20.70
2022-10-30T15:45:21.450Z,20.70
2022-10-30T15:47:50.317Z,20.60
2022-10-30T15:50:17.464Z,20.60
2022-10-30T15:52:44.349Z,20.60
2022-10-30T15:55:15.421Z,20.60
2022-10-30T16:00:33.291Z,20.60
2022-10-30T16:03:00.755Z,20.60
2022-10-30T16:05:28.002Z,20.50
2022-10-30T16:07:55.926Z,20.50
2022-10-30T16:10:22.911Z,20.50
2022-10-30T16:12:49.720Z,20.50
2022-10-30T16:15:30.916Z,20.50
2022-10-30T16:18:20.866Z,20.50
2022-10-30T16:20:58.114Z,20.50
2022-10-30T16:23:24.881Z,20.50
2022-10-30T16:25:55.786Z,20.50
2022-10-30T16:28:32.938Z,20.50
2022-10-30T16:31:04.875Z,20.50
2022-10-30T16:33:33.573Z,20.50
2022-10-30T16:36:02.094Z,20.40
2022-10-30T16:38:31.468Z,20.40
2022-10-30T16:40:58.419Z,20.40
2022-10-30T16:43:32.201Z,20.50
2022-10-30T16:46:31.777Z,20.40
2022-10-30T16:49:00.112Z,20.50
2022-10-30T16:51:27.102Z,20.40
2022-10-30T16:53:54.134Z,20.50
2022-10-30T16:56:24.052Z,20.40
2022-10-30T16:58:51.937Z,20.40
2022-10-30T17:01:18.967Z,20.40
2022-10-30T17:03:45.846Z,20.40
2022-10-30T17:06:26.048Z,20.40
2022-10-30T17:08:54.138Z,20.40
2022-10-30T17:11:33.740Z,20.40
2022-10-30T17:14:02.301Z,20.40
2022-10-30T17:16:30.577Z,20.40
2022-10-30T17:18:58.687Z,20.40
2022-10-30T17:21:44.321Z,20.40
2022-10-30T17:24:21.346Z,20.50
2022-10-30T17:26:58.701Z,20.40
2022-10-30T17:29:37.681Z,20.40
2022-10-30T17:32:13.578Z,20.40
2022-10-30T17:34:40.444Z,20.40
2022-10-30T17:37:07.144Z,20.40
2022-10-30T17:39:33.834Z,20.40
2022-10-30T17:42:00.712Z,20.40
2022-10-30T17:44:28.807Z,20.40
2022-10-30T17:46:55.521Z,20.40
2022-10-30T17:49:22.229Z,20.40
2022-10-30T17:51:48.947Z,20.40
2022-10-30T17:54:15.657Z,20.40
2022-10-30T17:56:42.502Z,20.40
2022-10-30T17:59:09.197Z,20.40
2022-10-30T18:01:36.082Z,20.40
2022-10-30T18:04:05.924Z,20.40
2022-10-30T18:06:32.685Z,20.40
2022-10-30T18:08:59.371Z,20.40
2022-10-30T18:11:27.281Z,20.40
2022-10-30T18:13:55.829Z,20.40
2022-10-30T18:16:22.574Z,20.40
2022-10-30T18:18:50.174Z,20.40
2022-10-30T18:21:17.951Z,20.40
2022-10-30T18:23:53.466Z,20.40
2022-10-30T18:26:24.817Z,20.40
2022-10-30T18:28:51.644Z,20.30
2022-10-30T18:31:19.460Z,20.40
2022-10-30T18:33:46.681Z,20.30
2022-10-30T18:36:17.172Z,20.40
2022-10-30T18:38:44.190Z,20.30
2022-10-30T18:41:19.201Z,20.30
2022-10-30T18:43:47.442Z,20.30
2022-10-30T18:46:14.627Z,20.40
2022-10-30T18:48:41.412Z,20.30
2022-10-30T18:51:27.038Z,20.30
2022-10-30T18:53:54.852Z,20.30
2022-10-30T18:56:22.887Z,20.30
2022-10-30T18:58:52.433Z,20.30
2022-10-30T19:01:22.287Z,20.30
2022-10-30T19:03:49.190Z,20.30
2022-10-30T19:06:17.002Z,20.30
2022-10-30T19:08:44.298Z,20.30
2022-10-30T19:11:17.588Z,20.30
2022-10-30T19:13:47.297Z,20.30
2022-10-30T19:16:15.457Z,20.30
2022-10-30T19:18:43.445Z,20.30
2022-10-30T19:21:16.078Z,20.30
2022-10-30T19:23:42.997Z,20.30
2022-10-30T19:28:41.644Z,20.30
2022-10-30T19:31:11.317Z,20.30
2022-10-30T19:33:38.027Z,20.30
2022-10-30T19:36:04.996Z,20.30
2022-10-30T19:38:31.760Z,20.30
2022-10-30T19:40:58.509Z,20.30
2022-10-30T19:43:25.258Z,20.30
2022-10-30T19:45:56.952Z,20.30
2022-10-30T19:48:47.620Z,20.30
2022-10-30T19:51:12.067Z,20.20
2022-10-30T19:53:39.278Z,20.20
2022-10-30T19:56:06.304Z,20.30
2022-10-30T19:58:33.144Z,20.30
2022-10-30T20:00:59.934Z,20.30
2022-10-30T20:03:26.708Z,20.30
2022-10-30T20:05:54.301Z,20.30
2022-10-30T20:08:21.878Z,20.30
2022-10-30T20:10:52.529Z,20.30
2022-10-30T20:13:20.456Z,20.30
2022-10-30T20:15:47.429Z,20.20
2022-10-30T20:18:15.881Z,20.20
2022-10-30T20:20:52.878Z,20.20
2022-10-30T20:23:22.784Z,20.20
2022-10-30T20:25:50.002Z,20.20
2022-10-30T20:28:24.730Z,20.20
2022-10-30T20:30:51.936Z,20.20
2022-10-30T20:33:19.502Z,20.20
2022-10-30T20:35:47.222Z,20.20
2022-10-30T20:38:29.061Z,20.20
2022-10-30T20:40:56.357Z,20.20
2022-10-30T20:43:33.287Z,20.20
2022-10-30T20:46:00.554Z,20.20
2022-10-30T20:48:27.688Z,20.20
2022-10-30T20:50:55.076Z,20.20
2022-10-30T20:53:22.040Z,20.20
2022-10-30T20:55:48.775Z,20.20
2022-10-30T20:58:15.649Z,20.20
2022-10-30T21:00:42.761Z,20.20
2022-10-30T21:03:10.547Z,20.20
2022-10-30T21:05:43.813Z,20.20
2022-10-30T21:08:12.229Z,20.20
2022-10-30T21:10:39.512Z,20.20
2022-10-30T21:13:08.938Z,20.20
2022-10-30T21:15:44.097Z,20.20
2022-10-30T21:18:12.636Z,20.20
2022-10-30T21:20:41.057Z,20.20
2022-10-30T21:23:08.534Z,20.20
2022-10-30T21:25:35.830Z,20.20
2022-10-30T21:28:02.694Z,20.20
2022-10-30T21:30:29.492Z,20.20
2022-10-30T21:32:56.305Z,20.20
2022-10-30T21:35:23.044Z,20.20
2022-10-30T21:37:49.869Z,20.20
2022-10-30T21:40:16.597Z,20.20
2022-10-30T21:42:43.305Z,20.20
2022-10-30T21:45:10.273Z,20.20
2022-10-30T21:47:36.994Z,20.30
2022-10-30T21:50:07.622Z,20.20
2022-10-30T21:52:36.185Z,20.20
2022-10-30T21:55:03.217Z,20.20
2022-10-30T21:57:30.011Z,20.20
2022-10-30T21:59:58.902Z,20.20
2022-10-30T22:05:50.222Z,20.20
2022-10-30T22:08:17.382Z,20.20
2022-10-30T22:10:44.071Z,20.20
2022-10-30T22:15:42.398Z,20.20
2022-10-30T22:18:09.175Z,20.20
2022-10-30T22:20:35.891Z,20.20
2022-10-30T22:23:02.587Z,20.20
2022-10-30T22:25:29.293Z,20.20
2022-10-30T22:27:56.124Z,20.20
2022-10-30T22:30:22.898Z,20.20
2022-10-30T22:32:49.609Z,20.20
2022-10-30T22:35:16.344Z,20.20
2022-10-30T22:37:43.066Z,20.20
2022-10-30T22:40:10.050Z,20.20
2022-10-30T22:42:36.805Z,20.20
2022-10-30T22:45:03.681Z,20.20
2022-10-30T22:47:30.505Z,20.20
2022-10-30T22:49:57.357Z,20.20
2022-10-30T22:52:24.061Z,20.20
2022-10-30T22:54:50.782Z,20.20
2022-10-30T22:57:17.559Z,20.20
2022-10-30T22:59:44.245Z,20.20
2022-10-30T23:02:10.981Z,20.20
2022-10-30T23:04:37.808Z,20.20
2022-10-30T23:07:04.513Z,20.20
2022-10-30T23:09:31.200Z,20.20
2022-10-30T23:11:57.953Z,20.20
2022-10-30T23:14:24.698Z,20.20
2022-10-30T23:16:51.463Z,20.20
2022-10-30T23:19:18.370Z,20.20
2022-10-30T23:21:45.109Z,20.10
2022-10-30T23:24:11.853Z,20.20
2022-10-30T23:26:38.644Z,20.10
2022-10-30T23:29:05.600Z,20.20
2022-10-30T23:31:36.490Z,20.20
2022-10-30T23:34:04.999Z,20.20
2022-10-30T23:36:31.997Z,20.20
2022-10-30T23:38:59.766Z,20.20
2022-10-30T23:41:27.515Z,20.10
2022-10-30T23:44:01.154Z,20.10
2022-10-30T23:46:28.510Z,20.10
2022-10-30T23:48:55.466Z,20.20
2022-10-30T23:51:22.568Z,20.10
2022-10-30T23:53:49.704Z,20.10
2022-10-30T23:56:17.002Z,20.10
2022-10-30T23:58:47.701Z,20.10
